Time;durP1;ratioP1;P1;durP2;ratioP2;P2;SDS_P1;SDS_P2;PMS_P1;PMS_P2;Temp;Humidity;BMP_temperature;BMP_pressure;BME280_temperature;BME280_humidity;BME280_pressure;Samples;Min_cycle;Max_cycle;Signal;HPM_P1;HPM_P2
2022/05/10 00:00:38;;;;;;;16.67;11.13;;;;;;;15.21;62.72;101953.03;5052476;28;20041;-82
2022/05/10 00:03:07;;;;;;;19.10;10.73;;;;;;;15.11;62.85;101949.69;5044862;28;20131;-83
2022/05/10 00:05:39;;;;;;;19.85;11.30;;;;;;;15.07;62.75;101949.78;5034440;28;20039;-82
2022/05/10 00:08:09;;;;;;;16.98;10.70;;;;;;;15.03;62.86;101948.97;5018188;28;20036;-82
2022/05/10 00:10:36;;;;;;;14.85;10.45;;;;;;;14.99;62.08;101941.97;5052131;28;20028;-82
2022/05/10 00:13:03;;;;;;;16.90;10.68;;;;;;;14.94;63.12;101935.88;5018047;28;20039;-82
2022/05/10 00:15:28;;;;;;;17.52;10.88;;;;;;;14.87;62.68;101929.78;5034390;28;20342;-83
2022/05/10 00:17:54;;;;;;;17.48;10.77;;;;;;;14.88;61.93;101935.97;5052157;28;20031;-82
2022/05/10 00:20:23;;;;;;;18.30;11.05;;;;;;;14.80;61.98;101937.03;5052131;28;20033;-82
2022/05/10 00:22:49;;;;;;;17.48;11.00;;;;;;;14.76;62.00;101929.13;5034027;28;20144;-82
2022/05/10 00:25:20;;;;;;;17.88;11.57;;;;;;;14.72;63.17;101927.47;5034112;28;20017;-82
2022/05/10 00:27:46;;;;;;;15.75;10.63;;;;;;;14.71;62.16;101923.91;5050778;28;20170;-82
2022/05/10 00:30:12;;;;;;;20.52;10.90;;;;;;;14.66;61.95;101920.44;5034228;28;20051;-82
2022/05/10 00:32:40;;;;;;;23.98;11.95;;;;;;;14.59;61.35;101919.72;5034060;28;20103;-82
2022/05/10 00:35:15;;;;;;;21.98;12.07;;;;;;;14.54;64.66;101916.28;5033955;28;20064;-82
2022/05/10 00:37:43;;;;;;;25.77;12.88;;;;;;;14.52;63.74;101914.53;5034111;28;20028;-82
2022/05/10 00:40:11;;;;;;;19.63;11.88;;;;;;;14.50;63.93;101921.66;5033780;28;20045;-82
2022/05/10 00:42:47;;;;;;;22.30;12.65;;;;;;;14.43;64.13;101918.25;5051805;28;20036;-82
2022/05/10 00:45:18;;;;;;;19.88;12.18;;;;;;;14.39;64.47;101914.78;5060530;28;20129;-82
2022/05/10 00:47:46;;;;;;;;;;;;;;;14.54;60.69;101916.28;5052164;28;20037;-82
2022/05/10 00:50:22;;;;;;;16.95;11.95;;;;;;;14.38;63.62;101914.81;5024827;28;19942;-82
2022/05/10 00:52:55;;;;;;;24.13;12.85;;;;;;;14.30;64.72;101908.75;5053622;28;20111;-82
2022/05/10 00:55:31;;;;;;;19.17;12.38;;;;;;;14.24;65.19;101907.06;5053239;28;20733;-82
2022/05/10 00:58:04;;;;;;;19.88;12.20;;;;;;;14.14;66.10;101905.50;5053524;28;20036;-82
2022/05/10 01:00:31;;;;;;;25.17;12.48;;;;;;;14.10;66.11;101898.50;5071323;28;20043;-82
2022/05/10 01:03:22;;;;;;;18.60;12.27;;;;;;;14.11;66.04;101903.78;5053693;28;20025;-83
2022/05/10 01:05:51;;;;;;;30.85;13.30;;;;;;;14.04;67.25;101899.47;5071265;28;20078;-82
2022/05/10 01:08:22;;;;;;;24.08;12.35;;;;;;;14.03;66.00;101900.41;5052775;28;20048;-82
2022/05/10 01:10:57;;;;;;;27.45;13.70;;;;;;;13.99;66.55;101896.03;5051303;28;20465;-82
2022/05/10 01:13:35;;;;;;;20.25;12.60;;;;;;;13.92;66.21;101891.72;5033534;28;20040;-82
2022/05/10 01:16:11;;;;;;;19.98;11.77;;;;;;;13.88;66.20;101893.59;5033302;28;20035;-82
2022/05/10 01:18:38;;;;;;;19.55;12.70;;;;;;;13.81;67.77;101891.06;5051281;28;20036;-82
2022/05/10 01:21:12;;;;;;;19.95;13.07;;;;;;;13.77;67.60;101887.56;5051344;28;20083;-82
2022/05/10 01:24:24;;;;;;;19.88;12.85;;;;;;;13.75;67.44;101882.28;5051052;28;20047;-82
2022/05/10 01:26:53;;;;;;;23.48;12.90;;;;;;;13.69;67.20;101878.84;5033066;28;20079;-82
2022/05/10 01:29:45;;;;;;;27.73;12.55;;;;;;;13.64;66.47;101875.41;5050860;28;20125;-82
2022/05/10 01:35:03;;;;;;;18.85;12.50;;;;;;;13.61;67.96;101872.78;5049773;28;20033;-82
2022/05/10 01:37:33;;;;;;;18.42;12.48;;;;;;;13.55;67.63;101857.81;5033092;28;20110;-82
2022/05/10 01:40:07;;;;;;;20.55;13.25;;;;;;;13.50;69.29;101867.66;5033036;28;20068;-82
2022/05/10 01:42:58;;;;;;;21.02;14.48;;;;;;;13.46;68.05;101858.84;5050797;28;20546;-82
2022/05/10 01:45:33;;;;;;;17.92;13.25;;;;;;;13.42;68.54;101854.47;5060679;28;20426;-82
2022/05/10 01:48:03;;;;;;;24.30;13.82;;;;;;;13.41;69.15;101854.53;5033182;28;20043;-82
2022/05/10 01:50:41;;;;;;;21.92;13.00;;;;;;;13.39;67.92;101846.56;5061064;28;20070;-82
2022/05/10 01:53:18;;;;;;;22.88;13.52;;;;;;;13.36;67.47;101849.28;5053372;28;20029;-82
2022/05/10 01:55:47;;;;;;;21.70;13.52;;;;;;;13.36;68.62;101845.75;5070734;28;20468;-82
2022/05/10 01:58:26;;;;;;;21.45;14.07;;;;;;;13.35;69.25;101839.53;5070909;28;20127;-82
2022/05/10 02:00:58;;;;;;;20.98;13.25;;;;;;;13.37;68.46;101845.69;5052748;28;20044;-82
2022/05/10 02:03:53;;;;;;;23.42;13.32;;;;;;;13.41;66.51;101846.53;5049006;28;20457;-81
2022/05/10 02:06:44;;;;;;;21.70;13.15;;;;;;;13.42;67.17;101845.63;5014220;28;20546;-81
2022/05/10 02:09:42;;;;;;;22.35;14.60;;;;;;;13.38;68.33;101834.16;5050534;28;20033;-81
2022/05/10 02:12:22;;;;;;;22.30;14.38;;;;;;;13.38;68.02;101828.84;5049364;28;20036;-81
2022/05/10 02:15:13;;;;;;;30.50;15.20;;;;;;;13.42;68.15;101830.53;5032899;28;20041;-81
2022/05/10 02:18:01;;;;;;;23.10;14.95;;;;;;;13.39;68.48;101822.59;5054694;28;20431;-81
2022/05/10 02:21:07;;;;;;;22.75;15.15;;;;;;;13.40;68.33;101823.47;5053392;28;20029;-82
2022/05/10 02:23:47;;;;;;;19.15;14.85;;;;;;;13.38;69.60;101817.31;5033646;28;20145;-81
2022/05/10 02:26:27;;;;;;;28.38;16.98;;;;;;;13.42;69.14;101816.34;5036402;28;20045;-81
2022/05/10 02:29:03;;;;;;;26.00;15.85;;;;;;;13.45;69.57;101818.94;5054298;28;20051;-81
2022/05/10 02:34:41;;;;;;;25.33;15.63;;;;;;;13.48;70.16;101808.28;5054295;28;20128;-81
2022/05/10 02:37:06;;;;;;;27.40;16.38;;;;;;;13.48;70.37;101801.16;5036514;28;20025;-81
2022/05/10 02:39:32;;;;;;;28.20;16.38;;;;;;;13.50;70.08;101803.78;5036260;28;20037;-81
2022/05/10 02:41:59;;;;;;;28.25;16.02;;;;;;;13.49;69.70;101796.72;5019799;28;20037;-81
2022/05/10 02:44:25;;;;;;;26.65;16.38;;;;;;;13.51;69.92;101797.56;5057515;28;20036;-81
2022/05/10 02:46:50;;;;;;;25.00;15.27;;;;;;;13.53;68.56;101793.97;5060185;28;20048;-82
2022/05/10 02:49:18;;;;;;;29.83;15.93;;;;;;;13.57;69.23;101800.09;5054527;28;20044;-81
2022/05/10 02:51:43;;;;;;;24.25;15.18;;;;;;;13.57;68.94;101792.13;5074161;28;20035;-81
2022/05/10 02:54:09;;;;;;;25.05;16.95;;;;;;;13.57;69.68;101789.47;5039479;28;20397;-81
2022/05/10 02:56:35;;;;;;;32.92;17.65;;;;;;;13.57;70.46;101791.25;5055941;28;20143;-81
2022/05/10 02:59:11;;;;;;;29.58;17.90;;;;;;;13.60;69.34;101789.41;5073777;28;20049;-81
2022/05/10 03:01:43;;;;;;;32.05;16.33;;;;;;;13.60;69.37;101789.41;5072197;28;20037;-82
2022/05/10 03:04:10;;;;;;;24.45;16.35;;;;;;;13.66;69.80;101783.97;5053552;28;20037;-82
2022/05/10 03:06:36;;;;;;;24.92;15.35;;;;;;;13.67;68.08;101791.03;5036006;28;20082;-82
2022/05/10 03:09:03;;;;;;;25.88;17.17;;;;;;;13.64;69.12;101791.09;5035393;28;20080;-81
2022/05/10 03:11:29;;;;;;;26.63;16.15;;;;;;;13.63;68.36;101781.38;5035645;28;20045;-82
2022/05/10 03:13:55;;;;;;;28.15;16.23;;;;;;;13.64;69.02;101775.13;5019159;28;20079;-82
2022/05/10 03:16:23;;;;;;;24.58;16.30;;;;;;;13.67;68.47;101782.16;5053810;28;20359;-82
2022/05/10 03:18:49;;;;;;;37.30;16.75;;;;;;;13.70;68.87;101783.00;5053443;28;20128;-82
2022/05/10 03:21:15;;;;;;;24.27;16.55;;;;;;;13.70;68.02;101777.69;5035715;28;20095;-81
2022/05/10 03:23:41;;;;;;;26.38;17.15;;;;;;;13.66;69.15;101769.78;5019261;28;20041;-83
2022/05/10 03:26:09;;;;;;;31.25;18.40;;;;;;;13.70;69.49;101774.16;5036032;28;20072;-83
2022/05/10 03:28:35;;;;;;;29.88;17.92;;;;;;;13.72;69.48;101770.53;5035262;28;20037;-82
2022/05/10 03:31:01;;;;;;;28.55;16.90;;;;;;;13.75;69.19;101766.94;5053326;28;20515;-82
2022/05/10 03:33:26;;;;;;;30.27;17.98;;;;;;;13.78;69.16;101764.22;5018655;28;20033;-82
2022/05/10 03:35:52;;;;;;;27.23;17.17;;;;;;;13.75;69.22;101761.63;5018865;28;20417;-82
2022/05/10 03:38:18;;;;;;;32.28;17.90;;;;;;;13.76;68.98;101758.91;5035470;28;20044;-82
2022/05/10 03:40:44;;;;;;;27.80;18.00;;;;;;;13.75;68.66;101749.19;5045189;28;20201;-82
2022/05/10 03:43:10;;;;;;;32.83;17.98;;;;;;;13.75;69.51;101750.97;5053276;28;20040;-82
2022/05/10 03:45:36;;;;;;;23.65;17.50;;;;;;;13.76;69.05;101761.56;5035211;28;20508;-82
2022/05/10 03:48:02;;;;;;;26.60;16.50;;;;;;;13.76;68.35;101750.06;5034837;28;20047;-82
2022/05/10 03:50:27;;;;;;;27.85;17.65;;;;;;;13.77;68.87;101746.47;5055535;28;20123;-82
2022/05/10 03:52:53;;;;;;;30.83;17.65;;;;;;;13.77;68.39;101751.78;5051042;28;20155;-82
2022/05/10 03:55:22;;;;;;;32.40;18.35;;;;;;;13.75;69.15;101743.84;5034351;28;20025;-82
2022/05/10 03:57:49;;;;;;;33.58;18.27;;;;;;;13.79;68.61;101747.31;5034313;28;20401;-82
2022/05/10 04:00:19;;;;;;;33.63;18.27;;;;;;;13.77;69.16;101746.47;5052150;28;20029;-82
2022/05/10 04:02:47;;;;;;;29.52;17.65;;;;;;;13.76;68.97;101742.94;5054165;28;20045;-82
2022/05/10 04:05:15;;;;;;;29.45;17.65;;;;;;;13.79;69.30;101735.81;5052412;28;20147;-82
2022/05/10 04:07:41;;;;;;;30.75;15.60;;;;;;;13.80;67.71;101738.44;5069531;28;20027;-82
2022/05/10 04:10:08;;;;;;;26.73;16.58;;;;;;;13.81;68.66;101734.00;5053926;28;20044;-82
2022/05/10 04:12:35;;;;;;;30.20;17.15;;;;;;;13.83;69.00;101735.72;5037465;28;20391;-82
2022/05/10 04:15:04;;;;;;;31.63;17.88;;;;;;;13.86;68.60;101742.75;5072709;28;20028;-82
2022/05/10 04:17:29;;;;;;;27.88;16.30;;;;;;;13.87;68.21;101741.84;5054468;28;20088;-82
2022/05/10 04:19:55;;;;;;;27.33;17.50;;;;;;;13.91;69.25;101740.88;5072415;28;20430;-82
2022/05/10 04:22:21;;;;;;;29.00;16.63;;;;;;;13.95;68.80;101745.22;5072468;28;20067;-82
2022/05/10 04:24:47;;;;;;;29.13;15.50;;;;;;;13.96;67.66;101742.50;5072243;28;20119;-82
2022/05/10 04:27:13;;;;;;;27.23;15.93;;;;;;;13.98;68.05;101731.84;5054489;28;20452;-82
2022/05/10 04:29:39;;;;;;;28.45;16.27;;;;;;;14.01;68.80;101731.75;5054018;28;20135;-82
2022/05/10 04:32:04;;;;;;;30.08;16.17;;;;;;;14.03;68.37;101729.94;5037498;28;20028;-82
2022/05/10 04:34:33;;;;;;;25.27;15.88;;;;;;;14.05;68.39;101733.47;5054715;28;20318;-82
2022/05/10 04:36:59;;;;;;;29.60;16.38;;;;;;;14.05;68.86;101724.59;5054110;28;20048;-82
2022/05/10 04:39:24;;;;;;;28.52;17.00;;;;;;;14.08;68.23;101729.84;5053260;28;20025;-82
2022/05/10 04:41:53;;;;;;;26.67;16.30;;;;;;;14.10;68.56;101730.69;5014583;28;20033;-82
2022/05/10 04:44:19;;;;;;;32.08;17.35;;;;;;;14.12;68.29;101715.53;5048144;28;20072;-82
2022/05/10 04:46:44;;;;;;;29.45;16.40;;;;;;;14.16;67.95;101717.22;5015843;28;20109;-82
2022/05/10 04:49:13;;;;;;;27.95;16.45;;;;;;;14.18;68.11;101716.28;5032056;28;20034;-82
2022/05/10 04:51:40;;;;;;;34.08;16.65;;;;;;;14.22;67.99;101718.88;5049391;28;20107;-82
2022/05/10 04:54:07;;;;;;;28.35;16.55;;;;;;;14.25;67.34;101717.03;5006537;28;20044;-82
2022/05/10 04:56:33;;;;;;;29.02;15.55;;;;;;;14.30;66.62;101717.78;5030098;28;20056;-82
2022/05/10 04:58:58;;;;;;;23.52;14.45;;;;;;;14.35;65.86;101717.69;5014866;28;20146;-82
2022/05/10 05:01:27;;;;;;;27.55;16.20;;;;;;;14.41;67.57;101720.19;5014739;28;20045;-82
2022/05/10 05:03:55;;;;;;;26.02;14.30;;;;;;;14.46;64.93;101717.44;5013612;28;20037;-82
2022/05/10 05:06:23;;;;;;;25.27;16.60;;;;;;;14.51;67.66;101721.72;4997529;28;20033;-82
2022/05/10 05:08:49;;;;;;;24.83;16.08;;;;;;;14.58;66.53;101717.16;5014874;28;20045;-82
2022/05/10 05:11:14;;;;;;;24.77;16.30;;;;;;;14.65;66.75;101728.56;5013955;28;20052;-82
2022/05/10 05:13:40;;;;;;;26.73;15.70;;;;;;;14.67;67.07;101718.75;5013463;28;20026;-82
2022/05/10 05:16:06;;;;;;;26.98;16.48;;;;;;;14.69;66.41;101714.22;5013745;28;20041;-82
2022/05/10 05:18:32;;;;;;;27.70;16.00;;;;;;;14.73;66.45;101716.78;5013771;28;20406;-82
2022/05/10 05:20:58;;;;;;;30.50;15.55;;;;;;;14.79;65.38;101716.63;5031379;28;20397;-82
2022/05/10 05:23:24;;;;;;;27.75;15.48;;;;;;;14.84;65.16;101722.72;5031075;28;20117;-82
2022/05/10 05:25:52;;;;;;;27.85;16.33;;;;;;;14.88;66.19;101718.16;4996895;28;20049;-82
2022/05/10 05:28:18;;;;;;;28.98;15.02;;;;;;;14.93;65.79;101721.59;5029743;28;20534;-82
2022/05/10 05:30:44;;;;;;;29.83;15.98;;;;;;;14.98;65.22;101718.81;5031498;28;20045;-82
2022/05/10 05:33:10;;;;;;;23.40;15.77;;;;;;;15.03;65.11;101723.13;4997045;28;20040;-82
2022/05/10 05:35:36;;;;;;;32.70;15.52;;;;;;;15.08;65.34;101720.31;5013532;28;20144;-82
2022/05/10 05:38:02;;;;;;;29.35;15.98;;;;;;;15.13;65.24;101723.72;5013660;28;20507;-82
2022/05/10 05:40:28;;;;;;;25.38;15.35;;;;;;;15.19;65.08;101726.25;5013231;28;20045;-82
2022/05/10 05:42:54;;;;;;;24.23;14.65;;;;;;;15.24;63.71;101721.66;5012905;28;20240;-82
2022/05/10 05:45:22;;;;;;;32.72;13.85;;;;;;;15.29;64.41;101710.88;5035543;28;20107;-82
2022/05/10 05:47:49;;;;;;;30.25;16.02;;;;;;;15.34;65.14;101716.94;5050864;28;20061;-82
2022/05/10 05:50:16;;;;;;;26.63;15.10;;;;;;;15.42;64.90;101714.06;5026319;28;20020;-82
2022/05/10 05:52:42;;;;;;;26.77;14.40;;;;;;;15.50;65.16;101714.72;5074921;28;20040;-82
2022/05/10 05:55:09;;;;;;;28.05;13.90;;;;;;;15.57;64.92;101713.63;5056971;28;20352;-82
2022/05/10 05:57:36;;;;;;;20.83;14.30;;;;;;;15.67;63.92;101703.56;5073593;28;20066;-82
2022/05/10 06:00:06;;;;;;;20.92;12.27;;;;;;;15.74;63.83;101696.28;5036544;28;20112;-82
2022/05/10 06:02:38;;;;;;;22.60;12.13;;;;;;;15.83;63.43;101698.69;5054229;28;20473;-82
2022/05/10 06:05:05;;;;;;;26.70;13.82;;;;;;;15.92;63.74;101701.06;5036303;28;20040;-82
2022/05/10 06:07:31;;;;;;;22.42;12.73;;;;;;;16.02;62.62;101694.53;5054077;28;20416;-82
2022/05/10 06:09:58;;;;;;;20.20;11.27;;;;;;;16.11;62.13;101699.56;5036124;28;20500;-82
2022/05/10 06:12:24;;;;;;;18.67;12.23;;;;;;;16.23;62.99;101709.00;5025815;28;20338;-82
2022/05/10 06:14:50;;;;;;;24.15;11.80;;;;;;;16.32;63.25;101698.03;5039400;28;20431;-82
2022/05/10 06:17:16;;;;;;;19.85;11.80;;;;;;;16.44;63.15;101701.22;5052829;28;20032;-82
2022/05/10 06:19:42;;;;;;;23.23;12.23;;;;;;;16.56;62.23;101704.34;5054682;28;20037;-82
2022/05/10 06:22:10;;;;;;;29.45;12.73;;;;;;;16.68;62.42;101697.72;5054507;28;20036;-82
2022/05/10 06:24:36;;;;;;;21.80;12.32;;;;;;;16.79;62.12;101701.88;5052630;28;20040;-82
2022/05/10 06:27:04;;;;;;;19.63;12.15;;;;;;;16.88;62.13;101701.56;5036356;28;20078;-82
2022/05/10 06:29:30;;;;;;;20.20;11.00;;;;;;;16.97;61.76;101693.22;5037012;28;20037;-82
2022/05/10 06:31:55;;;;;;;21.15;11.20;;;;;;;17.05;61.04;101696.50;5052229;28;20021;-82
2022/05/10 06:34:21;;;;;;;24.65;11.32;;;;;;;17.16;61.81;101690.75;5018499;28;20114;-83
2022/05/10 06:36:46;;;;;;;19.83;10.10;;;;;;;17.25;60.34;101684.22;5059099;28;20066;-82
2022/05/10 06:39:12;;;;;;;21.73;10.73;;;;;;;17.35;60.15;101691.84;5045690;28;20029;-83
2022/05/10 06:41:38;;;;;;;25.58;10.95;;;;;;;17.44;61.55;101690.66;5044015;28;20567;-83
2022/05/10 06:44:04;;;;;;;16.83;10.65;;;;;;;17.55;59.59;101684.88;5022370;28;20063;-82
2022/05/10 06:46:32;;;;;;;13.38;9.80;;;;;;;17.70;58.31;101689.66;5054435;28;20045;-82
2022/05/10 06:49:04;;;;;;;19.25;9.75;;;;;;;17.86;59.82;101687.31;5037736;28;20033;-82
2022/05/10 06:51:31;;;;;;;20.00;10.43;;;;;;;17.99;59.37;101669.78;5048920;28;20033;-82
2022/05/10 06:53:57;;;;;;;14.18;9.38;;;;;;;18.17;58.93;101672.69;5052783;28;20051;-82
2022/05/10 06:56:22;;;;;;;15.43;9.45;;;;;;;18.27;58.00;101671.38;5019146;28;20423;-82
2022/05/10 06:58:50;;;;;;;20.35;9.73;;;;;;;18.38;58.52;101671.81;5046850;28;20071;-85
2022/05/10 07:01:16;;;;;;;17.58;8.95;;;;;;;18.51;57.95;101672.16;5037707;28;20081;-86
2022/05/10 07:03:45;;;;;;;15.02;8.88;;;;;;;18.59;57.63;101661.97;5038768;28;20040;-86
2022/05/10 07:06:12;;;;;;;17.83;9.27;;;;;;;18.68;56.97;101666.09;5055302;28;20127;-86
2022/05/10 07:08:38;;;;;;;14.40;8.07;;;;;;;18.79;57.91;101666.56;5055626;28;20024;-86
2022/05/10 07:11:06;;;;;;;14.18;7.70;;;;;;;18.93;56.52;101657.03;5038724;28;20040;-86
2022/05/10 07:13:33;;;;;;;11.43;7.90;;;;;;;19.06;55.76;101659.06;5038444;28;20082;-85
2022/05/10 07:15:59;;;;;;;13.88;7.43;;;;;;;19.22;57.34;101661.97;5072013;28;20408;-86
2022/05/10 07:18:25;;;;;;;15.68;7.40;;;;;;;19.36;56.00;101657.78;5054985;28;20036;-85
2022/05/10 07:20:52;;;;;;;13.80;6.97;;;;;;;19.45;56.29;101651.97;5055142;28;20082;-82
2022/05/10 07:23:23;;;;;;;12.85;7.25;;;;;;;19.73;54.80;101644.41;5071435;28;20094;-82
2022/05/10 07:25:50;;;;;;;13.95;6.43;;;;;;;19.90;54.35;101640.91;5055120;28;20037;-82
2022/05/10 07:28:16;;;;;;;14.88;6.20;;;;;;;20.03;54.29;101640.31;5054546;28;20064;-82
2022/05/10 07:30:41;;;;;;;13.15;6.93;;;;;;;20.12;53.50;101647.94;5055125;28;20095;-83
2022/05/10 07:33:08;;;;;;;14.25;6.60;;;;;;;20.17;52.86;101645.88;5047736;28;20021;-82
2022/05/10 07:38:23;;;;;;;20.55;6.70;;;;;;;20.30;52.36;101641.66;5037726;28;20049;-82
2022/05/10 07:40:53;;;;;;;11.97;6.13;;;;;;;20.30;52.16;101644.34;5034687;28;20028;-82
2022/05/10 07:43:20;;;;;;;10.50;5.78;;;;;;;20.29;52.46;101637.22;5050545;28;20036;-82
2022/05/10 07:45:50;;;;;;;14.52;5.57;;;;;;;20.37;52.37;101650.28;5048272;28;20546;-81
2022/05/10 07:48:16;;;;;;;11.43;5.65;;;;;;;20.39;51.83;101641.19;5018420;28;20044;-82
2022/05/10 07:50:41;;;;;;;10.50;6.30;;;;;;;20.45;51.98;101641.81;5051051;28;20040;-82
2022/05/10 07:53:13;;;;;;;12.98;5.35;;;;;;;20.46;51.59;101644.44;5017796;28;20464;-83
2022/05/10 07:55:40;;;;;;;9.32;6.28;;;;;;;20.48;52.12;101634.47;5052477;28;20334;-82
2022/05/10 07:58:06;;;;;;;13.40;5.35;;;;;;;20.54;52.17;101636.84;5039327;28;20039;-82
2022/05/10 08:00:37;;;;;;;22.35;5.95;;;;;;;20.55;51.52;101638.63;5054309;28;20145;-82
2022/05/10 08:03:13;;;;;;;26.55;6.10;;;;;;;20.59;51.75;101631.25;5021592;28;20055;-82
2022/05/10 08:05:39;;;;;;;9.50;5.18;;;;;;;20.60;51.91;101635.72;5054421;28;20032;-83
2022/05/10 08:08:05;;;;;;;12.02;5.88;;;;;;;20.66;51.60;101635.38;5037720;28;20127;-82
2022/05/10 08:10:31;;;;;;;13.90;5.63;;;;;;;20.74;51.68;101633.16;5037367;28;20402;-82
2022/05/10 08:12:57;;;;;;;13.57;6.18;;;;;;;20.80;50.96;101632.84;5019972;28;20040;-82
2022/05/10 08:15:22;;;;;;;11.52;5.85;;;;;;;20.85;51.84;101640.69;5020682;28;20154;-81
2022/05/10 08:17:48;;;;;;;14.13;5.80;;;;;;;20.83;52.14;101635.38;5037334;28;20154;-82
2022/05/10 08:20:15;;;;;;;16.45;5.50;;;;;;;20.86;51.19;101634.34;5021045;28;20037;-83
2022/05/10 08:22:41;;;;;;;26.35;6.07;;;;;;;20.82;51.42;101635.44;5037074;28;20044;-83
2022/05/10 08:25:07;;;;;;;11.57;5.22;;;;;;;20.83;52.41;101632.69;5054011;28;20033;-82
2022/05/10 08:27:33;;;;;;;19.17;5.55;;;;;;;20.86;51.05;101620.88;5054355;28;20154;-82
2022/05/10 08:29:58;;;;;;;16.65;5.80;;;;;;;20.89;51.61;101627.94;5070200;28;20504;-83
2022/05/10 08:32:25;;;;;;;13.90;5.43;;;;;;;20.93;51.09;101627.69;5069959;28;20025;-82
2022/05/10 08:34:50;;;;;;;14.32;6.47;;;;;;;20.92;50.34;101620.56;5053656;28;20148;-82
2022/05/10 08:37:16;;;;;;;15.63;5.13;;;;;;;20.95;50.49;101616.84;5036961;28;20127;-83
2022/05/10 08:39:41;;;;;;;9.95;5.15;;;;;;;20.97;50.58;101623.03;5004261;28;20395;-82
2022/05/10 08:42:23;;;;;;;12.60;5.20;;;;;;;21.07;50.68;101610.81;5020417;28;20020;-82
2022/05/10 08:45:03;;;;;;;16.77;5.28;;;;;;;21.14;50.45;101614.91;5041305;28;20040;-82
2022/05/10 08:47:29;;;;;;;10.82;5.20;;;;;;;21.16;49.33;101614.81;5029732;28;20061;-83
2022/05/10 08:50:00;;;;;;;12.68;4.78;;;;;;;21.20;49.31;101613.69;5003853;28;20033;-83
2022/05/10 08:52:32;;;;;;;;;;;;;;;21.32;50.11;101614.88;5050715;28;20068;-83
2022/05/10 08:54:59;;;;;;;12.45;4.50;;;;;;;21.41;48.84;101609.88;5033284;28;19920;-83
2022/05/10 08:57:45;;;;;;;11.10;5.10;;;;;;;21.58;48.83;101608.06;5033518;28;20024;-84
2022/05/10 09:00:16;;;;;;;14.48;5.28;;;;;;;21.73;47.92;101606.31;4996983;28;20042;-83
2022/05/10 09:02:56;;;;;;;14.27;5.40;;;;;;;21.80;47.91;101603.19;4997499;28;20029;-83
2022/05/10 09:05:21;;;;;;;11.15;4.72;;;;;;;21.82;45.82;101598.59;5013607;28;20042;-83
2022/05/10 09:08:15;;;;;;;11.95;5.10;;;;;;;21.85;46.16;101597.53;4997102;28;20036;-83
2022/05/10 09:10:44;;;;;;;13.88;5.03;;;;;;;21.84;46.17;101593.13;4997132;28;20350;-83
2022/05/10 09:13:15;;;;;;;9.70;4.95;;;;;;;21.83;45.88;101594.06;4996928;28;20096;-84
2022/05/10 09:15:45;;;;;;;9.38;4.88;;;;;;;21.90;45.90;101587.34;4997399;28;20036;-84
2022/05/10 09:18:26;;;;;;;8.15;4.60;;;;;;;22.05;45.69;101583.75;5013563;28;20040;-83
2022/05/10 09:21:07;;;;;;;8.32;4.78;;;;;;;22.21;44.97;101582.91;4996709;28;20033;-84
2022/05/10 09:23:41;;;;;;;9.10;4.63;;;;;;;22.30;45.20;101582.34;5013239;28;20084;-86
2022/05/10 09:26:11;;;;;;;9.50;4.63;;;;;;;22.42;44.75;101583.47;5012965;28;20434;-83
2022/05/10 09:28:59;;;;;;;12.85;4.95;;;;;;;22.50;44.23;101584.75;4997131;28;20389;-83
2022/05/10 09:37:20;;;;;;;10.82;5.15;;;;;;;22.51;44.40;101570.28;5050109;28;20037;-83
2022/05/10 09:40:03;;;;;;;16.65;5.50;;;;;;;22.53;44.22;101576.47;5049871;28;20395;-84
2022/05/10 09:42:44;;;;;;;9.98;4.57;;;;;;;22.50;44.65;101573.06;5033189;28;20063;-84
2022/05/10 09:45:27;;;;;;;10.48;5.13;;;;;;;22.56;44.33;101579.94;5020677;28;20118;-84
2022/05/10 09:48:02;;;;;;;10.32;5.40;;;;;;;22.52;45.06;101565.75;5013101;28;20037;-84
2022/05/10 09:50:48;;;;;;;16.77;5.65;;;;;;;22.54;44.24;101558.44;5013619;28;20395;-84
2022/05/10 09:53:23;;;;;;;12.05;5.00;;;;;;;22.70;44.94;101561.94;5030140;28;20021;-83
2022/05/10 09:56:05;;;;;;;9.13;5.07;;;;;;;22.73;43.84;101555.47;5013964;28;20061;-83
2022/05/10 09:58:57;;;;;;;10.30;4.78;;;;;;;22.85;44.69;101564.63;5031706;28;20037;-85
2022/05/10 10:01:50;;;;;;;12.52;5.38;;;;;;;23.03;43.87;101566.22;5013708;28;20042;-86
2022/05/10 10:04:26;;;;;;;9.88;5.10;;;;;;;23.23;43.30;101551.47;5031474;28;20315;-87
2022/05/10 10:07:08;;;;;;;11.60;4.80;;;;;;;23.66;42.68;101548.66;5013678;28;20489;-85
2022/05/10 10:09:38;;;;;;;9.95;4.28;;;;;;;24.01;42.18;101540.06;5013668;28;20034;-86
2022/05/10 10:12:12;;;;;;;17.73;6.07;;;;;;;24.12;40.08;101545.63;5013968;28;20029;-84
2022/05/10 10:14:41;;;;;;;12.57;5.15;;;;;;;24.07;41.32;101545.09;5013451;28;20426;-86
2022/05/10 10:17:18;;;;;;;7.70;4.88;;;;;;;24.17;41.16;101551.59;5013790;28;20037;-84
2022/05/10 10:19:49;;;;;;;7.72;4.45;;;;;;;24.31;40.90;101566.03;5030244;28;20469;-85
2022/05/10 10:22:21;;;;;;;10.30;4.72;;;;;;;24.30;40.24;101550.75;5029910;28;20034;-86
2022/05/10 10:25:05;;;;;;;10.80;4.60;;;;;;;24.41;40.35;101535.53;5013455;28;20031;-86
2022/05/10 10:27:39;;;;;;;9.10;3.85;;;;;;;24.55;39.74;101539.13;5013618;28;20418;-84
2022/05/10 10:30:25;;;;;;;15.68;4.03;;;;;;;24.74;39.11;101539.59;5013314;28;20041;-81
2022/05/10 10:33:20;;;;;;;10.52;4.28;;;;;;;24.80;38.04;101532.84;5030921;28;20021;-83
2022/05/10 10:36:04;;;;;;;6.32;3.83;;;;;;;24.91;38.12;101532.97;5013420;28;20037;-82
2022/05/10 10:38:56;;;;;;;12.63;4.20;;;;;;;25.08;38.25;101531.75;5016806;28;20397;-83
2022/05/10 10:41:54;;;;;;;14.73;3.97;;;;;;;25.24;38.25;101523.41;4983457;28;20051;-85
2022/05/10 10:44:34;;;;;;;11.35;4.10;;;;;;;25.27;37.38;101523.19;5011253;28;20072;-83
2022/05/10 10:47:22;;;;;;;15.30;4.60;;;;;;;25.23;37.71;101524.41;5013402;28;20378;-84
2022/05/10 10:49:57;;;;;;;11.68;4.28;;;;;;;24.91;37.66;101532.97;5040558;28;20440;-84
2022/05/10 10:52:23;;;;;;;15.25;4.13;;;;;;;24.83;37.29;101524.53;5020491;28;20037;-86
2022/05/10 10:54:50;;;;;;;13.63;4.28;;;;;;;24.96;37.59;101521.81;5020063;28;20040;-84
2022/05/10 10:57:24;;;;;;;18.85;4.35;;;;;;;25.10;38.15;101518.97;5019552;28;20021;-87
2022/05/10 11:00:10;;;;;;;15.27;4.10;;;;;;;25.05;37.45;101521.16;5034232;28;20055;-85
2022/05/10 11:03:03;;;;;;;13.52;4.13;;;;;;;25.04;38.54;101522.13;5032699;28;20033;-85
2022/05/10 11:05:58;;;;;;;8.45;4.05;;;;;;;25.05;36.83;101516.59;5034060;28;20048;-81
2022/05/10 11:08:50;;;;;;;17.40;4.88;;;;;;;24.75;37.94;101519.63;5032426;28;20139;-82
2022/05/10 11:11:49;;;;;;;18.15;4.50;;;;;;;24.72;38.11;101521.72;5032624;28;20053;-84
2022/05/10 11:14:24;;;;;;;12.55;4.65;;;;;;;24.93;37.57;101512.06;5015692;28;20040;-84
2022/05/10 11:17:00;;;;;;;10.63;5.13;;;;;;;25.08;37.86;101494.69;5016295;28;20546;-84
2022/05/10 11:19:44;;;;;;;8.30;4.05;;;;;;;25.37;37.15;101497.16;5032721;28;20091;-82
2022/05/10 11:22:37;;;;;;;13.77;4.63;;;;;;;25.56;37.19;101491.19;5016418;28;20178;-84
2022/05/10 11:25:19;;;;;;;11.38;4.47;;;;;;;25.45;36.34;101491.16;5032436;28;20095;-83
2022/05/10 11:28:03;;;;;;;12.38;4.40;;;;;;;25.23;36.76;101491.88;5017649;28;20044;-85
2022/05/10 11:30:51;;;;;;;19.27;4.80;;;;;;;25.02;37.31;101494.25;5035285;28;20037;-85
2022/05/10 11:33:29;;;;;;;10.57;4.70;;;;;;;24.85;37.80;101496.34;5035425;28;20115;-84
2022/05/10 11:36:14;;;;;;;8.70;4.38;;;;;;;24.88;37.88;101479.03;5035680;28;20116;-83
2022/05/10 11:38:53;;;;;;;14.10;4.20;;;;;;;25.06;38.62;101477.66;5052463;28;20104;-83
2022/05/10 11:41:27;;;;;;;11.35;4.53;;;;;;;25.35;37.07;101479.28;5053585;28;20048;-84
2022/05/10 11:44:32;;;;;;;13.77;4.88;;;;;;;25.41;36.38;101462.53;5031208;28;20174;-83
2022/05/10 11:47:23;;;;;;;11.95;4.60;;;;;;;25.39;36.84;101472.63;5031668;28;20135;-82
2022/05/10 11:49:48;;;;;;;15.15;3.92;;;;;;;25.37;36.33;101450.16;5035399;28;20140;-83